createdAt,value
2023-12-11T00:01:13.747Z,17.20
2023-12-11T00:03:41.942Z,17.10
2023-12-11T00:06:10.297Z,17.10
2023-12-11T00:08:38.636Z,17.00
2023-12-11T00:11:06.869Z,16.90
2023-12-11T00:13:36.083Z,16.90
2023-12-11T00:16:04.115Z,16.90
2023-12-11T00:18:32.181Z,17.00
2023-12-11T00:21:02.224Z,17.00
2023-12-11T00:23:29.912Z,17.00
2023-12-11T00:25:57.784Z,16.90
2023-12-11T00:28:25.652Z,17.00
2023-12-11T00:30:54.917Z,17.00
2023-12-11T00:33:22.870Z,17.00
2023-12-11T00:35:51.479Z,17.10
2023-12-11T00:38:19.461Z,17.30
2023-12-11T00:40:47.715Z,17.40
2023-12-11T00:43:15.692Z,17.30
2023-12-11T00:45:43.908Z,17.20
2023-12-11T00:48:13.257Z,17.20
2023-12-11T00:50:41.365Z,17.10
2023-12-11T00:53:09.332Z,17.10
2023-12-11T00:55:37.405Z,17.10
2023-12-11T00:58:05.317Z,17.10
2023-12-11T01:00:33.523Z,17.00
2023-12-11T01:03:01.817Z,17.00
2023-12-11T01:05:31.175Z,17.00
2023-12-11T01:07:59.113Z,16.90
2023-12-11T01:10:26.978Z,16.90
2023-12-11T01:12:56.225Z,16.80
2023-12-11T01:15:24.315Z,16.80
2023-12-11T01:17:52.537Z,16.70
2023-12-11T01:20:20.649Z,16.70
2023-12-11T01:22:49.839Z,16.70
2023-12-11T01:25:17.713Z,16.70
2023-12-11T01:27:45.685Z,16.80
2023-12-11T01:30:13.846Z,17.00
2023-12-11T01:32:41.813Z,17.10
2023-12-11T01:35:10.346Z,17.00
2023-12-11T01:37:38.236Z,17.00
2023-12-11T01:40:09.266Z,17.00
2023-12-11T01:42:37.274Z,16.90
2023-12-11T01:45:05.633Z,16.90
2023-12-11T01:47:34.302Z,16.90
2023-12-11T01:50:02.439Z,16.90
2023-12-11T01:52:30.548Z,16.90
2023-12-11T01:54:58.563Z,16.90
2023-12-11T01:57:28.508Z,16.90
2023-12-11T01:59:56.372Z,16.90
2023-12-11T02:02:24.825Z,16.90
2023-12-11T02:04:55.101Z,16.90
2023-12-11T02:07:23.054Z,16.90
2023-12-11T02:09:51.119Z,16.80
2023-12-11T02:12:19.063Z,16.80
2023-12-11T02:14:48.297Z,16.80
2023-12-11T02:17:16.228Z,16.80
2023-12-11T02:19:44.246Z,16.70
2023-12-11T02:22:12.600Z,16.60
2023-12-11T02:24:44.653Z,16.60
2023-12-11T02:27:13.886Z,16.60
2023-12-11T02:29:41.769Z,16.60
2023-12-11T02:32:09.679Z,16.50
2023-12-11T02:34:38.124Z,16.50
2023-12-11T02:37:06.238Z,16.50
2023-12-11T02:39:34.399Z,16.50
2023-12-11T02:42:02.504Z,16.60
2023-12-11T02:44:32.209Z,16.50
2023-12-11T02:47:00.063Z,16.50
2023-12-11T02:49:28.057Z,16.60
2023-12-11T02:51:55.944Z,16.60
2023-12-11T02:54:23.799Z,16.50
2023-12-11T02:56:51.680Z,16.50
2023-12-11T02:59:19.771Z,16.50
2023-12-11T03:01:49.053Z,16.60
2023-12-11T03:04:17.116Z,16.50
2023-12-11T03:06:45.050Z,16.60
2023-12-11T03:09:12.967Z,16.60
2023-12-11T03:11:40.838Z,16.60
2023-12-11T03:14:08.697Z,16.60
2023-12-11T03:16:36.648Z,16.60
2023-12-11T03:19:06.025Z,16.50
2023-12-11T03:21:34.183Z,16.60
2023-12-11T03:24:01.146Z,16.50
2023-12-11T03:26:29.037Z,16.50
2023-12-11T03:28:56.882Z,16.50
2023-12-11T03:31:24.744Z,16.50
2023-12-11T03:33:52.713Z,16.50
2023-12-11T03:36:22.029Z,16.50
2023-12-11T03:38:49.874Z,16.50
2023-12-11T03:41:17.790Z,16.40
2023-12-11T03:43:45.625Z,16.40
2023-12-11T03:46:13.710Z,16.40
2023-12-11T03:48:41.760Z,16.40
2023-12-11T03:51:09.721Z,16.50
2023-12-11T03:53:38.984Z,16.50
2023-12-11T03:56:07.630Z,16.50
2023-12-11T03:58:35.514Z,16.50
2023-12-11T04:01:03.482Z,16.50
2023-12-11T04:03:32.559Z,16.40
2023-12-11T04:06:00.490Z,16.40
2023-12-11T04:08:28.483Z,16.50
2023-12-11T04:10:58.234Z,16.50
2023-12-11T04:13:26.087Z,16.50
2023-12-11T04:15:54.493Z,16.50
2023-12-11T04:18:22.490Z,16.50
2023-12-11T04:20:50.409Z,16.50
2023-12-11T04:23:18.339Z,16.50
2023-12-11T04:25:46.257Z,16.50
2023-12-11T04:28:15.777Z,16.50
2023-12-11T04:30:43.669Z,16.50
2023-12-11T04:33:11.710Z,16.50
2023-12-11T04:35:39.767Z,16.40
2023-12-11T04:38:07.628Z,16.40
2023-12-11T04:40:35.963Z,16.40
2023-12-11T04:43:04.031Z,16.40
2023-12-11T04:45:33.391Z,16.40
2023-12-11T04:48:01.419Z,16.30
2023-12-11T04:50:29.301Z,16.30
2023-12-11T04:52:57.186Z,16.30
2023-12-11T04:55:25.473Z,16.30
2023-12-11T04:57:53.420Z,16.20
2023-12-11T05:00:21.679Z,16.30
2023-12-11T05:02:50.901Z,16.40
2023-12-11T05:05:19.198Z,16.40
2023-12-11T05:07:47.170Z,16.50
2023-12-11T05:10:15.200Z,16.50
2023-12-11T05:12:43.121Z,16.50
2023-12-11T05:15:11.810Z,16.60
2023-12-11T05:17:39.737Z,16.60
2023-12-11T05:20:11.208Z,16.70
2023-12-11T05:22:39.135Z,16.70
2023-12-11T05:25:08.416Z,16.80
2023-12-11T05:27:36.319Z,16.80
2023-12-11T05:30:04.691Z,16.90
2023-12-11T05:32:32.710Z,16.90
2023-12-11T05:35:00.816Z,16.90
2023-12-11T05:37:30.226Z,16.90
2023-12-11T05:40:20.551Z,16.90
2023-12-11T05:42:46.188Z,16.90
2023-12-11T05:45:14.235Z,17.00
2023-12-11T05:47:42.124Z,17.00
2023-12-11T05:50:10.793Z,17.00
2023-12-11T05:52:40.024Z,17.00
2023-12-11T05:55:08.529Z,17.00
2023-12-11T05:57:36.532Z,17.00
2023-12-11T06:00:05.816Z,17.10
2023-12-11T06:02:34.054Z,17.10
2023-12-11T06:05:01.981Z,17.10
2023-12-11T06:07:30.107Z,17.10
2023-12-11T06:09:59.789Z,17.10
2023-12-11T06:12:28.667Z,17.10
2023-12-11T06:14:56.656Z,17.10
2023-12-11T06:17:24.549Z,17.10
2023-12-11T06:19:52.926Z,17.10
2023-12-11T06:22:20.870Z,17.10
2023-12-11T06:24:48.781Z,17.10
2023-12-11T06:27:17.998Z,17.10
2023-12-11T06:29:45.873Z,17.10
2023-12-11T06:32:13.982Z,17.10
2023-12-11T06:34:41.964Z,17.10
2023-12-11T06:37:10.214Z,17.10
2023-12-11T06:39:38.479Z,17.10
2023-12-11T06:42:06.909Z,17.10
2023-12-11T06:44:37.476Z,17.10
2023-12-11T06:47:06.090Z,17.20
2023-12-11T06:49:34.934Z,17.30
2023-12-11T06:52:03.094Z,17.30
2023-12-11T06:54:30.977Z,17.30
2023-12-11T06:56:58.847Z,17.20
2023-12-11T06:59:30.515Z,17.20
2023-12-11T07:01:59.835Z,17.20
2023-12-11T07:04:28.931Z,17.30
2023-12-11T07:06:57.063Z,17.30
2023-12-11T07:09:25.163Z,17.30
2023-12-11T07:11:54.053Z,17.20
2023-12-11T07:14:23.736Z,17.20
2023-12-11T07:16:51.923Z,17.20
2023-12-11T07:19:21.669Z,17.20
2023-12-11T07:21:49.818Z,17.20
2023-12-11T07:24:17.700Z,17.30
2023-12-11T07:26:45.674Z,17.30
2023-12-11T07:29:13.656Z,17.30
2023-12-11T07:31:43.770Z,17.30
2023-12-11T07:34:11.937Z,17.20
2023-12-11T07:36:41.347Z,17.20
2023-12-11T07:39:10.748Z,17.30
2023-12-11T07:41:38.614Z,17.20
2023-12-11T07:44:06.674Z,17.30
2023-12-11T07:46:34.561Z,17.30
2023-12-11T07:49:02.943Z,17.40
2023-12-11T07:51:30.929Z,17.30
2023-12-11T07:54:00.454Z,17.30
2023-12-11T07:56:30.887Z,17.30
2023-12-11T07:58:58.842Z,17.30
2023-12-11T08:01:31.769Z,17.40
2023-12-11T08:04:00.830Z,17.50
2023-12-11T08:06:29.155Z,17.50
2023-12-11T08:08:57.010Z,17.60
2023-12-11T08:11:28.209Z,17.70
2023-12-11T08:13:56.124Z,17.60
2023-12-11T08:16:25.275Z,17.30
2023-12-11T08:18:53.733Z,17.20
2023-12-11T08:21:21.654Z,17.30
2023-12-11T08:23:49.750Z,17.30
2023-12-11T08:26:19.315Z,17.40
2023-12-11T08:28:49.593Z,17.50
2023-12-11T08:31:17.682Z,17.40
2023-12-11T08:33:45.790Z,17.40
2023-12-11T08:36:13.803Z,17.50
2023-12-11T08:38:41.723Z,17.40
2023-12-11T08:41:09.627Z,17.40
2023-12-11T08:43:37.735Z,17.40
2023-12-11T08:46:07.505Z,17.50
2023-12-11T08:48:35.792Z,17.50
2023-12-11T08:51:03.776Z,17.50
2023-12-11T08:53:31.683Z,17.50
2023-12-11T08:55:59.647Z,17.50
2023-12-11T08:58:27.541Z,17.70
2023-12-11T09:00:55.462Z,17.70
2023-12-11T09:03:24.791Z,17.80
2023-12-11T09:05:55.395Z,18.00
2023-12-11T09:08:24.864Z,18.00
2023-12-11T09:10:52.704Z,18.00
2023-12-11T09:13:20.619Z,18.10
2023-12-11T09:15:48.642Z,18.10
2023-12-11T09:18:16.684Z,18.20
2023-12-11T09:20:46.020Z,18.20
2023-12-11T09:23:13.932Z,18.30
2023-12-11T09:25:41.780Z,18.40
2023-12-11T09:28:09.697Z,18.40
2023-12-11T09:30:37.694Z,18.30
2023-12-11T09:33:05.821Z,18.20
2023-12-11T09:35:33.869Z,18.10
2023-12-11T09:38:03.501Z,18.10
2023-12-11T09:40:31.530Z,18.10
2023-12-11T09:43:03.106Z,18.00
2023-12-11T09:45:32.338Z,18.00
2023-12-11T09:48:08.728Z,18.00
2023-12-11T09:50:42.377Z,18.20
2023-12-11T09:53:11.784Z,18.20
2023-12-11T09:55:39.631Z,18.20
2023-12-11T09:58:08.819Z,18.10
2023-12-11T10:00:38.028Z,18.00
2023-12-11T10:03:09.178Z,18.10
2023-12-11T10:05:39.095Z,18.00
2023-12-11T10:08:07.125Z,18.00
2023-12-11T10:10:39.229Z,18.00
2023-12-11T10:13:07.753Z,18.00
2023-12-11T10:15:37.638Z,18.00
2023-12-11T10:18:06.862Z,18.10
2023-12-11T10:20:36.251Z,18.20
2023-12-11T10:23:15.912Z,18.20
2023-12-11T10:25:46.948Z,18.10
2023-12-11T10:28:16.671Z,18.20
2023-12-11T10:30:52.187Z,18.10
2023-12-11T10:33:20.759Z,18.20
2023-12-11T10:35:49.434Z,18.20
2023-12-11T10:38:24.496Z,18.20
2023-12-11T10:40:55.989Z,18.20
2023-12-11T10:43:24.009Z,18.20
2023-12-11T10:45:52.786Z,18.20
2023-12-11T10:48:22.169Z,18.20
2023-12-11T10:50:51.378Z,18.20
2023-12-11T10:53:20.503Z,18.20
2023-12-11T10:55:50.894Z,18.20
2023-12-11T10:58:20.528Z,18.10
2023-12-11T11:00:48.835Z,18.10
2023-12-11T11:03:17.190Z,18.10
2023-12-11T11:05:46.024Z,18.10
2023-12-11T11:08:24.661Z,18.20
2023-12-11T11:10:56.058Z,18.30
2023-12-11T11:13:29.858Z,18.30
2023-12-11T11:15:58.173Z,18.30
2023-12-11T11:18:26.121Z,18.30
2023-12-11T11:21:14.043Z,18.40
2023-12-11T11:23:44.167Z,18.50
2023-12-11T11:26:30.385Z,18.60
2023-12-11T11:28:59.608Z,18.60
2023-12-11T11:31:52.344Z,18.60
2023-12-11T11:34:45.600Z,18.60
2023-12-11T11:37:18.202Z,18.60
2023-12-11T11:39:59.736Z,18.60
2023-12-11T11:42:28.431Z,18.50
2023-12-11T11:44:59.295Z,18.50
2023-12-11T11:47:27.580Z,18.60
2023-12-11T11:49:56.057Z,18.60
2023-12-11T11:52:28.949Z,18.60
2023-12-11T11:55:02.718Z,18.60
2023-12-11T11:57:30.802Z,18.60
2023-12-11T12:00:00.688Z,18.70
2023-12-11T12:02:28.522Z,18.70
2023-12-11T12:04:56.742Z,18.80
2023-12-11T12:07:24.636Z,18.90
2023-12-11T12:09:53.919Z,19.10
2023-12-11T12:12:21.893Z,19.20
2023-12-11T12:15:03.239Z,19.30
2023-12-11T12:17:31.591Z,19.30
2023-12-11T12:20:00.636Z,19.20
2023-12-11T12:22:29.351Z,19.00
2023-12-11T12:24:57.342Z,18.90
2023-12-11T12:27:26.876Z,18.80
2023-12-11T12:29:55.587Z,18.70
2023-12-11T12:32:25.861Z,18.60
2023-12-11T12:34:55.623Z,18.50
2023-12-11T12:37:24.036Z,18.50
2023-12-11T12:39:57.685Z,18.70
2023-12-11T12:42:31.126Z,18.80
2023-12-11T12:44:58.900Z,18.70
2023-12-11T12:47:28.487Z,18.60
2023-12-11T12:49:56.740Z,18.60
2023-12-11T12:52:25.243Z,18.50
2023-12-11T12:54:56.077Z,18.50
2023-12-11T12:57:24.638Z,18.70
2023-12-11T12:59:52.626Z,19.30
2023-12-11T13:02:20.395Z,19.70
2023-12-11T13:04:53.555Z,20.00
2023-12-11T13:07:23.383Z,20.00
2023-12-11T13:09:52.435Z,19.80
2023-12-11T13:12:21.853Z,19.70
2023-12-11T13:14:50.546Z,19.60
2023-12-11T13:17:18.534Z,19.50
2023-12-11T13:19:46.457Z,19.50
2023-12-11T13:22:16.241Z,20.00
2023-12-11T13:24:44.769Z,20.20
2023-12-11T13:27:12.561Z,19.80
2023-12-11T13:29:40.376Z,19.50
2023-12-11T13:32:08.955Z,19.20
2023-12-11T13:34:37.324Z,19.10
2023-12-11T13:37:05.750Z,18.80
2023-12-11T13:39:36.185Z,18.40
2023-12-11T13:42:04.355Z,18.20
2023-12-11T13:44:32.396Z,17.90
2023-12-11T13:47:00.453Z,17.90
2023-12-11T13:49:28.469Z,17.90
2023-12-11T13:51:56.361Z,18.00
2023-12-11T13:54:24.909Z,18.20
2023-12-11T13:56:54.121Z,18.40
2023-12-11T13:59:23.505Z,18.50
2023-12-11T14:01:53.086Z,18.60
2023-12-11T14:04:21.385Z,18.60
2023-12-11T14:06:49.323Z,18.50
2023-12-11T14:09:17.367Z,18.50
2023-12-11T14:11:45.133Z,18.50
2023-12-11T14:14:15.438Z,18.50
2023-12-11T14:16:43.267Z,18.50
2023-12-11T14:19:11.117Z,18.50
2023-12-11T14:21:38.957Z,18.50
2023-12-11T14:24:07.369Z,18.50
2023-12-11T14:26:43.557Z,18.50
2023-12-11T14:29:17.012Z,18.40
2023-12-11T14:31:46.527Z,18.50
2023-12-11T14:34:15.805Z,18.50
2023-12-11T14:36:44.297Z,18.50
2023-12-11T14:39:12.092Z,18.50
2023-12-11T14:41:44.054Z,18.50
2023-12-11T14:44:12.690Z,18.50
2023-12-11T14:46:42.130Z,18.40
2023-12-11T14:49:10.009Z,18.40
2023-12-11T14:51:40.284Z,18.30
2023-12-11T14:54:08.884Z,18.30
2023-12-11T14:56:37.452Z,18.30
2023-12-11T14:59:05.257Z,18.20
2023-12-11T15:01:33.348Z,18.20
2023-12-11T15:04:02.909Z,18.20
2023-12-11T15:06:30.796Z,18.10
2023-12-11T15:08:59.285Z,18.10
2023-12-11T15:11:28.457Z,18.10
2023-12-11T15:13:56.776Z,18.20
2023-12-11T15:16:25.195Z,18.10
2023-12-11T15:18:54.242Z,18.00
2023-12-11T15:21:23.914Z,18.10
2023-12-11T15:23:51.784Z,18.00
2023-12-11T15:26:20.358Z,18.10
2023-12-11T15:28:48.263Z,18.30
2023-12-11T15:31:22.113Z,18.30
2023-12-11T15:33:50.053Z,18.30
2023-12-11T15:36:19.541Z,18.20
2023-12-11T15:38:48.819Z,18.20
2023-12-11T15:41:17.468Z,18.20
2023-12-11T15:43:46.763Z,18.10
2023-12-11T15:46:14.779Z,18.10
2023-12-11T15:48:46.032Z,18.10
2023-12-11T15:51:16.336Z,18.10
2023-12-11T15:53:45.312Z,18.10
2023-12-11T15:56:17.168Z,18.10
2023-12-11T15:58:45.815Z,18.10
2023-12-11T16:01:15.537Z,18.10
2023-12-11T16:03:43.674Z,18.00
2023-12-11T16:06:12.270Z,17.90
2023-12-11T16:08:40.076Z,18.00
2023-12-11T16:11:08.163Z,18.00
2023-12-11T16:13:37.319Z,17.90
2023-12-11T16:16:05.849Z,18.00
2023-12-11T16:18:33.846Z,18.00
2023-12-11T16:21:01.924Z,17.90
2023-12-11T16:23:29.686Z,18.00
2023-12-11T16:26:02.990Z,17.80
2023-12-11T16:28:34.455Z,17.80
2023-12-11T16:31:03.871Z,17.90
2023-12-11T16:33:32.265Z,17.80
2023-12-11T16:36:00.337Z,17.90
2023-12-11T16:38:27.318Z,17.90
2023-12-11T16:40:55.105Z,17.90
2023-12-11T16:43:22.959Z,17.90
2023-12-11T16:45:50.984Z,17.90
2023-12-11T16:48:20.311Z,18.00
2023-12-11T16:50:48.850Z,17.90
2023-12-11T16:53:17.083Z,17.90
2023-12-11T16:55:44.900Z,17.90
2023-12-11T16:58:12.792Z,18.00
2023-12-11T17:00:40.672Z,18.00
2023-12-11T17:03:08.687Z,18.00
2023-12-11T17:05:37.923Z,18.00
2023-12-11T17:08:06.110Z,17.90
2023-12-11T17:10:33.998Z,17.80
2023-12-11T17:13:01.936Z,17.80
2023-12-11T17:15:29.755Z,17.80
2023-12-11T17:17:57.677Z,17.90
2023-12-11T17:20:25.542Z,17.90
2023-12-11T17:22:54.689Z,17.90
2023-12-11T17:25:22.552Z,17.90
2023-12-11T17:27:50.452Z,17.90
2023-12-11T17:30:18.992Z,17.90
2023-12-11T17:32:46.828Z,17.90
2023-12-11T17:35:15.213Z,17.80
2023-12-11T17:37:43.304Z,17.90
2023-12-11T17:40:13.064Z,17.90
2023-12-11T17:42:40.911Z,17.90
2023-12-11T17:45:09.330Z,17.90
2023-12-11T17:47:37.301Z,17.90
2023-12-11T17:50:06.211Z,17.90
2023-12-11T17:52:34.410Z,17.90
2023-12-11T17:55:04.037Z,17.90
2023-12-11T17:57:33.379Z,17.90
2023-12-11T18:00:01.733Z,17.90
2023-12-11T18:02:29.749Z,17.80
2023-12-11T18:04:57.818Z,17.80
2023-12-11T18:07:26.821Z,17.80
2023-12-11T18:09:54.718Z,17.90
2023-12-11T18:12:22.809Z,17.90
2023-12-11T18:14:52.149Z,18.10
2023-12-11T18:17:19.941Z,18.20
2023-12-11T18:19:47.890Z,18.30
2023-12-11T18:22:16.515Z,18.30
2023-12-11T18:24:44.432Z,18.40
2023-12-11T18:27:12.312Z,18.50
2023-12-11T18:29:40.086Z,18.60
2023-12-11T18:32:09.606Z,18.70
2023-12-11T18:34:43.587Z,18.70
2023-12-11T18:37:21.303Z,18.50
2023-12-11T18:39:49.220Z,18.20
2023-12-11T18:42:17.490Z,18.00
2023-12-11T18:44:45.663Z,17.70
2023-12-11T18:47:14.788Z,17.70
2023-12-11T18:49:44.242Z,17.70
2023-12-11T18:52:15.439Z,17.50
2023-12-11T18:54:43.880Z,17.60
2023-12-11T18:57:12.969Z,17.60
2023-12-11T18:59:40.777Z,17.60
2023-12-11T19:02:09.072Z,17.70
2023-12-11T19:04:38.519Z,17.70
2023-12-11T19:07:06.523Z,17.80
2023-12-11T19:09:34.355Z,17.70
2023-12-11T19:12:02.224Z,17.70
2023-12-11T19:14:30.021Z,17.60
2023-12-11T19:16:57.869Z,17.70
2023-12-11T19:19:25.803Z,17.70
2023-12-11T19:21:55.123Z,17.90
2023-12-11T19:24:23.049Z,17.90
2023-12-11T19:26:50.830Z,17.90
2023-12-11T19:29:18.694Z,17.90
2023-12-11T19:31:46.805Z,17.80
2023-12-11T19:34:16.549Z,17.80
2023-12-11T19:36:44.610Z,17.80
2023-12-11T19:39:13.870Z,17.80
2023-12-11T19:41:43.682Z,18.00
2023-12-11T19:44:11.709Z,18.20
2023-12-11T19:46:44.773Z,18.20
2023-12-11T19:49:12.873Z,18.10
2023-12-11T19:51:44.156Z,18.00
2023-12-11T19:54:13.467Z,17.90
2023-12-11T19:56:41.697Z,17.90
2023-12-11T19:59:10.100Z,17.80
2023-12-11T20:01:38.149Z,17.80
2023-12-11T20:04:06.796Z,17.90
2023-12-11T20:06:34.890Z,17.80
2023-12-11T20:09:02.806Z,17.80
2023-12-11T20:11:31.993Z,17.80
2023-12-11T20:14:00.269Z,17.80
2023-12-11T20:16:30.040Z,17.80
2023-12-11T20:18:57.941Z,17.80
2023-12-11T20:21:26.116Z,17.80
2023-12-11T20:23:53.951Z,17.80
2023-12-11T20:26:23.419Z,17.80
2023-12-11T20:28:52.658Z,17.80
2023-12-11T20:31:21.017Z,17.80
2023-12-11T20:33:49.066Z,17.70
2023-12-11T20:36:17.934Z,17.80
2023-12-11T20:38:45.895Z,17.80
2023-12-11T20:41:24.106Z,17.80
2023-12-11T20:43:56.603Z,17.80
2023-12-11T20:46:25.376Z,17.80
2023-12-11T20:48:54.006Z,17.80
2023-12-11T20:51:22.785Z,17.80
2023-12-11T20:53:51.940Z,17.80
2023-12-11T20:56:21.107Z,17.80
2023-12-11T20:58:49.342Z,17.80
2023-12-11T21:01:29.168Z,17.80
2023-12-11T21:03:57.317Z,17.80
2023-12-11T21:06:26.020Z,17.70
2023-12-11T21:08:54.544Z,17.70
2023-12-11T21:11:22.407Z,17.70
2023-12-11T21:13:50.880Z,17.70
2023-12-11T21:16:19.436Z,17.70
2023-12-11T21:18:50.461Z,17.70
2023-12-11T21:21:19.023Z,17.70
2023-12-11T21:23:47.395Z,17.70
2023-12-11T21:26:15.997Z,17.70
2023-12-11T21:28:43.883Z,17.70
2023-12-11T21:31:18.985Z,17.70
2023-12-11T21:33:48.222Z,17.80
2023-12-11T21:36:16.188Z,17.80
2023-12-11T21:38:44.092Z,17.70
2023-12-11T21:41:14.716Z,17.70
2023-12-11T21:43:46.797Z,17.70
2023-12-11T21:46:15.198Z,17.60
2023-12-11T21:48:45.077Z,17.60
2023-12-11T21:51:16.084Z,17.50
2023-12-11T21:53:44.033Z,17.50
2023-12-11T21:56:12.034Z,17.40
2023-12-11T21:58:39.854Z,17.30
2023-12-11T22:01:08.092Z,17.30
2023-12-11T22:03:36.120Z,17.20
2023-12-11T22:06:04.371Z,17.20
2023-12-11T22:08:33.700Z,17.20
2023-12-11T22:11:01.599Z,17.10
2023-12-11T22:13:30.223Z,17.10
2023-12-11T22:15:58.691Z,17.00
2023-12-11T22:18:26.577Z,17.00
2023-12-11T22:20:54.428Z,16.90
2023-12-11T22:23:22.249Z,16.90
2023-12-11T22:25:51.395Z,16.90
2023-12-11T22:28:19.207Z,16.90
2023-12-11T22:30:47.181Z,16.90
2023-12-11T22:33:15.077Z,17.20
2023-12-11T22:35:42.904Z,17.20
2023-12-11T22:38:12.931Z,17.20
2023-12-11T22:40:41.266Z,17.20
2023-12-11T22:43:10.420Z,17.10
2023-12-11T22:45:38.467Z,17.00
2023-12-11T22:48:07.136Z,16.90
2023-12-11T22:50:35.293Z,16.80
2023-12-11T22:53:02.208Z,16.80
2023-12-11T22:55:30.099Z,16.80
2023-12-11T22:58:06.615Z,16.80
2023-12-11T23:00:43.467Z,16.80
2023-12-11T23:03:11.274Z,16.80
2023-12-11T23:05:39.297Z,16.80
2023-12-11T23:08:07.430Z,16.70
2023-12-11T23:10:35.399Z,16.70
2023-12-11T23:13:03.519Z,16.70
2023-12-11T23:15:31.544Z,16.70
2023-12-11T23:18:00.805Z,16.70
2023-12-11T23:20:28.634Z,16.70
2023-12-11T23:22:56.535Z,16.70
2023-12-11T23:25:24.822Z,16.70
2023-12-11T23:27:52.804Z,16.70
2023-12-11T23:30:20.691Z,16.70
2023-12-11T23:32:48.624Z,16.70
2023-12-11T23:35:17.976Z,16.60
2023-12-11T23:37:45.838Z,16.70
2023-12-11T23:40:14.053Z,16.60
2023-12-11T23:42:42.155Z,16.60
2023-12-11T23:45:10.383Z,16.60
2023-12-11T23:47:38.751Z,16.50
2023-12-11T23:50:08.419Z,16.60
2023-12-11T23:52:37.769Z,16.50
2023-12-11T23:55:06.362Z,16.50
2023-12-11T23:57:34.746Z,16.50
